Time;durP1;ratioP1;P1;durP2;ratioP2;P2;SDS_P1;SDS_P2;PMS_P1;PMS_P2;Temp;Humidity;BMP_temperature;BMP_pressure;BME280_temperature;BME280_humidity;BME280_pressure;Samples;Min_cycle;Max_cycle;Signal;HPM_P1;HPM_P2
2022/05/01 00:02:06;;;;;;;1.53;0.90;;;;;;;;;;5066535;28;20520;-69
2022/05/01 00:04:32;;;;;;;0.77;0.77;;;;;;;;;;5069722;28;20455;-69
2022/05/01 00:06:58;;;;;;;0.90;0.90;;;;;;;;;;5065879;28;20462;-69
2022/05/01 00:09:24;;;;;;;0.73;0.73;;;;;;;;;;5049496;28;20449;-69
2022/05/01 00:11:50;;;;;;;1.23;1.17;;;;;;;;;;5063736;28;20733;-68
2022/05/01 00:14:17;;;;;;;0.77;0.77;;;;;;;;;;5069511;28;20437;-68
2022/05/01 00:16:43;;;;;;;1.03;1.03;;;;;;;;;;5064286;28;20450;-67
2022/05/01 00:19:08;;;;;;;0.70;0.70;;;;;;;;;;5069318;28;20529;-68
2022/05/01 00:21:38;;;;;;;1.00;1.00;;;22.50;57.10;;;;;;5069701;28;20413;-68
2022/05/01 00:24:05;;;;;;;0.90;0.90;;;22.40;54.50;;;;;;5069612;28;20179;-68
2022/05/01 00:26:31;;;;;;;1.23;1.23;;;;;;;;;;5052736;28;20938;-67
2022/05/01 00:28:57;;;;;;;0.90;0.90;;;;;;;;;;5049415;28;20434;-68
2022/05/01 00:31:23;;;;;;;2.50;0.90;;;;;;;;;;5049456;28;20172;-68
2022/05/01 00:36:34;;;;;;;1.00;1.00;;;;;;;;;;5065417;28;20451;-68
2022/05/01 00:39:05;;;;;;;1.23;1.05;;;22.40;66.70;;;;;;5069280;28;20447;-68
2022/05/01 00:41:32;;;;;;;0.75;0.75;;;21.90;56.90;;;;;;5069385;28;20175;-68
2022/05/01 00:43:58;;;;;;;0.83;0.83;;;;;;;;;;5055360;28;20246;-68
2022/05/01 00:46:24;;;;;;;0.90;0.90;;;22.50;54.60;;;;;;5063466;28;20456;-68
2022/05/01 00:48:50;;;;;;;0.90;0.90;;;;;;;;;;5069355;28;20559;-68
2022/05/01 00:51:17;;;;;;;1.00;1.00;;;;;;;;;;5069187;28;20413;-68
2022/05/01 00:53:43;;;;;;;1.00;0.80;;;23.10;63.60;;;;;;5069020;28;20776;-68
2022/05/01 00:56:09;;;;;;;0.87;0.87;;;;;;;;;;5056209;28;20571;-68
2022/05/01 00:58:36;;;;;;;0.90;0.90;;;22.20;57.10;;;;;;5048830;28;20816;-69
2022/05/01 01:01:02;;;;;;;0.80;0.80;;;;;;;;;;5049099;28;20437;-69
2022/05/01 01:03:28;;;;;;;0.90;0.90;;;;;;;;;;5049145;28;20791;-68
2022/05/01 01:05:54;;;;;;;3.90;1.03;;;;;;;;;;5057238;28;20904;-67
2022/05/01 01:08:21;;;;;;;0.90;0.90;;;;;;;;;;5054031;28;20521;-67
2022/05/01 01:10:47;;;;;;;1.20;1.10;;;;;;;;;;5053559;28;20418;-68
2022/05/01 01:13:13;;;;;;;1.93;1.07;;;;;;;;;;5069028;28;20410;-68
2022/05/01 01:15:39;;;;;;;1.10;1.00;;;;;;;;;;5060373;28;20422;-67
2022/05/01 01:18:05;;;;;;;1.10;1.10;;;;;;;;;;5052052;28;20540;-68
2022/05/01 01:20:31;;;;;;;0.70;0.70;;;;;;;;;;5053106;28;20848;-68
2022/05/01 01:22:59;;;;;;;0.70;0.70;;;22.30;57.50;;;;;;5052939;28;20212;-68
2022/05/01 01:25:27;;;;;;;1.10;1.10;;;22.30;57.00;;;;;;5043265;28;20453;-68
2022/05/01 01:27:54;;;;;;;0.90;0.90;;;22.30;57.20;;;;;;5070902;28;20426;-67
2022/05/01 01:33:06;;;;;;;1.00;0.90;;;;;;;;;;5072923;28;20400;-69
2022/05/01 01:35:35;;;;;;;1.00;1.00;;;22.40;57.20;;;;;;5066329;28;20867;-68
2022/05/01 01:38:02;;;;;;;1.10;1.10;;;;;;;;;;5070563;28;20448;-68
2022/05/01 01:40:45;;;;;;;1.10;1.00;;;22.30;51.70;;;;;;5072398;28;20394;-68
2022/05/01 01:43:12;;;;;;;1.20;1.10;;;22.40;57.00;;;;;;5072601;28;20397;-69
2022/05/01 01:45:38;;;;;;;0.70;0.70;;;;;;;;;;5065561;28;20421;-68
2022/05/01 01:48:13;;;;;;;0.93;0.93;;;22.30;51.90;;;;;;5052316;28;20406;-68
2022/05/01 01:50:39;;;;;;;1.10;1.10;;;;;;;;;;5071260;28;20425;-69
2022/05/01 01:53:05;;;;;;;1.30;1.30;;;;;;;;;;5072314;28;20496;-69
2022/05/01 01:55:32;;;;;;;0.77;0.77;;;;;;;;;;5068852;28;20413;-68
2022/05/01 01:57:58;;;;;;;0.70;0.70;;;;;;;;;;5052068;28;20409;-69
2022/05/01 02:00:24;;;;;;;0.80;0.80;;;22.40;54.10;;;;;;5052046;28;20496;-68
2022/05/01 02:02:50;;;;;;;1.00;1.00;;;;;;;;;;5051790;28;20417;-68
2022/05/01 02:05:16;;;;;;;0.80;0.80;;;;;;;;;;5052176;28;20407;-69
2022/05/01 02:07:42;;;;;;;1.00;1.00;;;;;;;;;;5062055;28;20506;-69
2022/05/01 02:10:08;;;;;;;0.80;0.80;;;;;;;;;;5051967;28;20422;-68
2022/05/01 02:12:34;;;;;;;1.80;1.10;;;;;;;;;;5051915;28;20442;-68
2022/05/01 02:15:00;;;;;;;0.90;0.90;;;;;;;;;;5052919;28;20405;-69
2022/05/01 02:17:26;;;;;;;0.80;0.80;;;;;;;;;;5051375;28;20454;-69
2022/05/01 02:19:52;;;;;;;0.90;0.90;;;;;;;;;;5051648;28;20445;-68
2022/05/01 02:22:21;;;;;;;0.70;0.70;;;;;;;;;;5051707;28;20410;-69
2022/05/01 02:24:47;;;;;;;0.70;0.70;;;;;;;;;;5051811;28;20172;-68
2022/05/01 02:27:13;;;;;;;0.70;0.70;;;;;;;;;;5068998;28;20471;-68
2022/05/01 02:29:39;;;;;;;0.63;0.63;;;;;;;;;;5070269;28;20491;-68
2022/05/01 02:32:05;;;;;;;0.90;0.90;;;;;;;;;;5061944;28;20294;-68
2022/05/01 02:34:31;;;;;;;0.70;0.70;;;;;;;;;;5051507;28;20506;-68
2022/05/01 02:36:57;;;;;;;1.40;1.40;;;;;;;;;;5051410;28;20926;-68
2022/05/01 02:39:24;;;;;;;0.87;0.87;;;;;;;;;;5051447;28;20509;-67
2022/05/01 02:41:50;;;;;;;1.07;1.07;;;;;;;;;;5057926;28;20675;-69
2022/05/01 02:44:16;;;;;;;0.70;0.70;;;;;;;;;;5071604;28;20441;-69
2022/05/01 02:46:42;;;;;;;0.80;0.80;;;;;;;;;;5070950;28;20261;-69
2022/05/01 02:49:10;;;;;;;1.30;1.27;;;;;;;;;;5071233;28;20523;-69
2022/05/01 02:51:36;;;;;;;1.33;0.83;;;;;;;;;;5071349;28;20753;-69
2022/05/01 02:54:04;;;;;;;1.43;1.30;;;22.40;54.50;;;;;;5061026;28;20425;-69
2022/05/01 02:56:30;;;;;;;0.90;0.90;;;22.30;54.40;;;;;;5051088;28;20436;-67
2022/05/01 02:58:57;;;;;;;0.93;0.93;;;;;;;;;;5050911;28;20466;-68
2022/05/01 03:01:23;;;;;;;1.07;1.07;;;;;;;;;;5050982;28;20431;-68
2022/05/01 03:03:49;;;;;;;0.70;0.70;;;;;;;;;;5051002;28;20879;-68
2022/05/01 03:06:15;;;;;;;0.80;0.80;;;;;;;;;;5050758;28;20490;-69
2022/05/01 03:08:41;;;;;;;0.70;0.70;;;;;;;;;;5068153;28;20445;-68
2022/05/01 03:11:07;;;;;;;0.90;0.90;;;;;;;;;;5071037;28;20413;-69
2022/05/01 03:13:33;;;;;;;1.20;1.10;;;;;;;;;;5070887;28;20424;-69
2022/05/01 03:16:00;;;;;;;1.00;0.90;;;;;;;;;;5062608;28;20441;-68
2022/05/01 03:23:54;;;;;;;0.70;0.70;;;;;;;;;;5050548;28;20506;-68
2022/05/01 03:26:20;;;;;;;1.00;1.00;;;;;;;;;;5050122;28;20541;-68
2022/05/01 03:28:47;;;;;;;0.80;0.80;;;;;;;;;;5050373;28;20640;-66
2022/05/01 03:31:13;;;;;;;0.70;0.70;;;;;;;;;;5070048;28;20414;-68
2022/05/01 03:33:39;;;;;;;1.43;1.20;;;;;;;;;;5070235;28;20402;-68
2022/05/01 03:36:06;;;;;;;1.43;1.03;;;22.30;56.50;;;;;;5056893;28;20492;-69
2022/05/01 03:38:34;;;;;;;1.13;1.13;;;22.30;56.90;;;;;;5050171;28;20537;-68
2022/05/01 03:41:01;;;;;;;1.70;1.00;;;22.30;85.70;;;;;;5049885;28;20410;-69
2022/05/01 03:43:27;;;;;;;1.20;1.20;;;;;;;;;;5050214;28;20415;-68
2022/05/01 03:45:53;;;;;;;0.80;0.80;;;;;;;;;;5060086;28;20598;-67
2022/05/01 03:48:19;;;;;;;0.70;0.70;;;;;;;;;;5069859;28;20493;-66
2022/05/01 03:50:45;;;;;;;1.13;1.13;;;;;;;;;;5069931;28;20167;-68
2022/05/01 03:53:11;;;;;;;0.90;0.90;;;;;;;;;;5069771;28;20426;-68
2022/05/01 03:55:37;;;;;;;0.70;0.70;;;;;;;;;;5069634;28;20416;-68
2022/05/01 03:58:03;;;;;;;0.60;0.60;;;;;;;;;;5067956;28;20258;-68
2022/05/01 04:00:29;;;;;;;1.07;0.90;;;;;;;;;;5067978;28;20417;-68
2022/05/01 04:02:55;;;;;;;1.60;0.90;;;;;;;;;;5065123;28;20418;-69
2022/05/01 04:05:21;;;;;;;1.17;1.17;;;;;;;;;;5049782;28;20488;-68
2022/05/01 04:07:47;;;;;;;0.90;0.90;;;;;;;;;;5049317;28;20469;-68
2022/05/01 04:10:13;;;;;;;0.80;0.80;;;;;;;;;;5049841;28;20464;-68
2022/05/01 04:12:41;;;;;;;1.87;1.07;;;22.20;65.40;;;;;;5056538;28;20417;-69
2022/05/01 04:15:07;;;;;;;0.98;0.90;;;;;;;;;;5069794;28;20424;-69
2022/05/01 04:17:38;;;;;;;0.90;0.90;;;21.30;58.40;;;;;;5051317;28;20195;-69
2022/05/01 04:20:06;;;;;;;0.90;0.90;;;;;;;;;;5048354;28;20477;-69
2022/05/01 04:22:42;;;;;;;0.80;0.80;;;22.60;57.00;;;;;;5048296;28;20790;-69
2022/05/01 04:25:17;;;;;;;1.00;1.00;;;22.20;56.60;;;;;;5048016;28;20422;-67
2022/05/01 04:27:56;;;;;;;1.43;1.23;;;22.30;56.80;;;;;;5048079;28;20497;-68
2022/05/01 04:30:22;;;;;;;0.90;0.90;;;22.30;53.60;;;;;;5047889;28;20418;-69
2022/05/01 04:32:53;;;;;;;0.70;0.70;;;22.80;57.00;;;;;;5047956;28;20568;-66
2022/05/01 04:35:29;;;;;;;0.73;0.73;;;22.20;65.20;;;;;;5048369;28;20425;-69
2022/05/01 04:37:59;;;;;;;0.60;0.60;;;22.20;51.80;;;;;;5045694;28;20771;-68
2022/05/01 04:40:26;;;;;;;1.07;1.07;;;22.10;60.20;;;;;;5048383;28;20755;-68
2022/05/01 04:42:52;;;;;;;0.90;0.70;;;21.90;77.10;;;;;;5048522;28;20453;-69
2022/05/01 04:45:18;;;;;;;0.70;0.70;;;;;;;;;;5048103;28;20422;-68
2022/05/01 04:47:45;;;;;;;0.80;0.80;;;;;;;;;;5047682;28;20464;-68
2022/05/01 04:50:11;;;;;;;0.60;0.60;;;;;;;;;;5047848;28;20435;-68
2022/05/01 04:52:38;;;;;;;2.30;0.87;;;22.30;56.90;;;;;;5047509;28;20479;-68
2022/05/01 04:55:05;;;;;;;0.80;0.80;;;22.20;56.50;;;;;;5049232;28;20443;-68
2022/05/01 04:57:31;;;;;;;2.10;1.00;;;;;;;;;;5048063;28;20426;-69
2022/05/01 04:59:57;;;;;;;0.90;0.90;;;;;;;;;;5047669;28;20533;-68
2022/05/01 05:02:23;;;;;;;0.87;0.87;;;;;;;;;;5048101;28;20799;-67
2022/05/01 05:04:49;;;;;;;0.70;0.70;;;;;;;;;;5047860;28;20429;-69
2022/05/01 05:07:15;;;;;;;0.80;0.80;;;;;;;;;;5047672;28;20753;-69
2022/05/01 05:09:59;;;;;;;1.30;1.30;;;;;;;;;;5049711;28;20468;-68
2022/05/01 05:12:25;;;;;;;0.80;0.80;;;;;;;;;;5046751;28;20414;-68
2022/05/01 05:14:54;;;;;;;0.90;0.90;;;22.20;69.40;;;;;;5047711;28;20425;-68
2022/05/01 05:17:21;;;;;;;0.98;0.82;;;;;;;;;;5047738;28;20471;-69
2022/05/01 05:19:47;;;;;;;1.00;1.00;;;22.30;75.60;;;;;;5047778;28;20923;-68
2022/05/01 05:22:14;;;;;;;0.80;0.80;;;22.20;62.30;;;;;;5047740;28;20421;-69
2022/05/01 05:24:40;;;;;;;1.15;0.63;;;;;;;;;;5050427;28;20418;-68
2022/05/01 05:27:06;;;;;;;0.70;0.70;;;;;;;;;;5047415;28;20196;-70
2022/05/01 05:29:32;;;;;;;0.80;0.80;;;;;;;;;;5047458;28;20286;-70
2022/05/01 05:31:58;;;;;;;0.80;0.80;;;;;;;;;;5047625;28;20411;-69
2022/05/01 05:34:24;;;;;;;1.10;1.10;;;;;;;;;;5047664;28;20406;-70
2022/05/01 05:36:50;;;;;;;0.77;0.77;;;;;;;;;;5047278;28;20425;-69
2022/05/01 05:39:16;;;;;;;0.73;0.73;;;;;;;;;;5047836;28;20446;-70
2022/05/01 05:41:41;;;;;;;0.80;0.80;;;;;;;;;;5048787;28;20513;-70
2022/05/01 05:44:08;;;;;;;1.03;1.03;;;;;;;;;;5047667;28;20219;-70
2022/05/01 05:46:33;;;;;;;1.02;0.95;;;;;;;;;;5047390;28;20492;-70
2022/05/01 05:48:59;;;;;;;0.80;0.80;;;;;;;;;;5047387;28;20422;-69
2022/05/01 05:51:26;;;;;;;1.47;0.63;;;;;;;;;;5047800;28;20179;-69
2022/05/01 05:53:52;;;;;;;0.63;0.63;;;22.20;55.80;;;;;;5047459;28;20520;-70
2022/05/01 05:56:18;;;;;;;1.00;0.87;;;;;;;;;;5047094;28;20418;-69
2022/05/01 05:58:44;;;;;;;0.97;0.97;;;;;;;;;;5047236;28;20537;-69
2022/05/01 06:01:11;;;;;;;0.93;0.93;;;;;;;;;;5048613;28;20429;-70
2022/05/01 06:03:37;;;;;;;0.80;0.80;;;;;;;;;;5049535;28;20405;-70
2022/05/01 06:06:03;;;;;;;0.63;0.63;;;22.20;56.60;;;;;;5050856;28;20460;-70
2022/05/01 06:08:29;;;;;;;0.83;0.83;;;;;;;;;;5050805;28;20503;-68
2022/05/01 06:10:55;;;;;;;0.98;0.98;;;;;;;;;;5048307;28;20879;-70
2022/05/01 06:13:21;;;;;;;0.70;0.70;;;;;;;;;;5051405;28;20806;-69
2022/05/01 06:15:47;;;;;;;0.90;0.90;;;;;;;;;;5051924;28;20410;-70
2022/05/01 06:18:13;;;;;;;0.85;0.82;;;;;;;;;;5063208;28;20465;-70
2022/05/01 06:20:39;;;;;;;1.63;0.80;;;;;;;;;;5071799;28;20171;-69
2022/05/01 06:23:05;;;;;;;0.87;0.87;;;;;;;;;;5071735;28;20930;-69
2022/05/01 06:25:31;;;;;;;1.07;1.07;;;;;;;;;;5071506;28;20409;-69
2022/05/01 06:27:57;;;;;;;0.80;0.80;;;;;;;;;;5071571;28;20469;-69
2022/05/01 06:30:23;;;;;;;1.10;1.10;;;;;;;;;;5071598;28;20168;-70
2022/05/01 06:32:49;;;;;;;0.80;0.80;;;;;;;;;;5056005;28;20777;-69
2022/05/01 06:35:17;;;;;;;0.70;0.70;;;22.20;56.60;;;;;;5071343;28;20406;-70
2022/05/01 06:37:43;;;;;;;0.83;0.83;;;22.10;68.80;;;;;;5071354;28;20913;-70
2022/05/01 06:40:09;;;;;;;0.80;0.80;;;;;;;;;;5071300;28;20983;-69
2022/05/01 06:42:35;;;;;;;0.70;0.70;;;;;;;;;;5071368;28;20486;-69
2022/05/01 06:45:01;;;;;;;0.70;0.70;;;;;;;;;;5069515;28;20433;-69
2022/05/01 06:47:27;;;;;;;0.80;0.80;;;;;;;;;;5071009;28;20918;-69
2022/05/01 06:49:53;;;;;;;1.20;1.10;;;;;;;;;;5071109;28;20183;-69
2022/05/01 06:52:23;;;;;;;0.80;0.80;;;22.10;64.30;;;;;;5071274;28;20441;-69
2022/05/01 06:54:49;;;;;;;1.00;1.00;;;;;;;;;;5047377;28;20427;-68
2022/05/01 06:57:15;;;;;;;0.70;0.70;;;;;;;;;;5051034;28;20176;-69
2022/05/01 06:59:40;;;;;;;0.73;0.73;;;22.10;67.10;;;;;;5063741;28;20468;-70
2022/05/01 07:02:06;;;;;;;0.80;0.80;;;;;;;;;;5055115;28;20175;-69
2022/05/01 07:04:32;;;;;;;1.00;1.00;;;22.30;80.60;;;;;;5048208;28;20651;-69
2022/05/01 07:06:58;;;;;;;0.80;0.80;;;;;;;;;;5041385;28;20639;-68
2022/05/01 07:09:24;;;;;;;1.47;1.00;;;;;;;;;;5043812;28;20537;-69
2022/05/01 07:11:50;;;;;;;1.20;1.20;;;;;;;;;;5053626;28;20269;-69
2022/05/01 07:14:16;;;;;;;1.60;1.60;;;22.40;80.60;;;;;;5050302;28;20399;-69
2022/05/01 07:16:42;;;;;;;1.37;1.37;;;;;;;;;;5043457;28;20941;-68
2022/05/01 07:19:08;;;;;;;2.00;1.90;;;;;;;;;;5050277;28;20558;-68
2022/05/01 07:21:33;;;;;;;1.85;1.75;;;;;;;;;;5050593;28;20911;-68
2022/05/01 07:23:59;;;;;;;2.40;2.20;;;;;;;;;;5050618;28;20190;-68
2022/05/01 07:26:26;;;;;;;2.73;1.90;;;;;;;;;;5050116;28;20492;-69
2022/05/01 07:28:52;;;;;;;1.90;1.80;;;;;;;;;;5070286;28;20475;-69
2022/05/01 07:31:18;;;;;;;1.30;1.30;;;;;;;;;;5045540;28;20429;-70
2022/05/01 07:33:45;;;;;;;1.50;1.50;;;;;;;;;;5043676;28;20443;-69
2022/05/01 07:36:12;;;;;;;1.43;1.43;;;;;;;;;;5049302;28;20497;-69
2022/05/01 07:38:38;;;;;;;2.03;1.27;;;;;;;;;;5055014;28;20437;-68
2022/05/01 07:41:04;;;;;;;1.03;1.03;;;;;;;;;;5070035;28;20437;-68
2022/05/01 07:43:30;;;;;;;1.37;1.37;;;;;;;;;;5067043;28;20468;-68
2022/05/01 07:45:56;;;;;;;1.13;1.13;;;;;;;;;;5049713;28;20569;-69
2022/05/01 07:48:22;;;;;;;1.93;1.13;;;;;;;;;;5049726;28;20465;-67
2022/05/01 07:50:48;;;;;;;2.50;1.30;;;;;;;;;;5049756;28;20770;-69
2022/05/01 07:53:16;;;;;;;1.20;1.20;;;;;;;;;;5049879;28;20625;-69
2022/05/01 07:55:42;;;;;;;1.10;1.10;;;;;;;;;;5049577;28;20556;-69
2022/05/01 07:58:08;;;;;;;1.40;1.30;;;;;;;;;;5058108;28;20484;-69
2022/05/01 08:00:33;;;;;;;1.30;1.20;;;22.20;70.60;;;;;;5049763;28;20441;-69
2022/05/01 08:05:44;;;;;;;1.07;1.07;;;;;;;;;;5069292;28;20262;-69
2022/05/01 08:08:10;;;;;;;2.55;1.80;;;;;;;;;;5050293;28;20442;-69
2022/05/01 08:10:36;;;;;;;2.55;1.30;;;;;;;;;;5049290;28;20247;-69
2022/05/01 08:13:02;;;;;;;1.23;1.10;;;22.10;71.80;;;;;;5049390;28;20176;-69
2022/05/01 08:15:27;;;;;;;1.35;1.13;;;;;;;;;;5056804;28;20965;-69
2022/05/01 08:17:53;;;;;;;1.93;1.47;;;;;;;;;;5067225;28;20422;-69
2022/05/01 08:23:05;;;;;;;1.45;1.35;;;22.20;63.20;;;;;;5069257;28;20901;-69
2022/05/01 08:25:32;;;;;;;1.23;1.23;;;22.20;54.50;;;;;;5068815;28;20169;-68
2022/05/01 08:27:58;;;;;;;1.47;1.37;;;22.00;66.20;;;;;;5068511;28;20256;-68
2022/05/01 08:30:24;;;;;;;1.52;1.42;;;;;;;;;;5063593;28;20426;-68
2022/05/01 08:32:50;;;;;;;1.33;1.33;;;;;;;;;;5049217;28;20187;-69
2022/05/01 08:35:16;;;;;;;1.10;1.10;;;;;;;;;;5061154;28;20421;-68
2022/05/01 08:37:42;;;;;;;1.10;1.10;;;;;;;;;;5069007;28;20539;-68
2022/05/01 08:40:09;;;;;;;1.30;1.20;;;22.20;59.90;;;;;;5052983;28;20265;-68
2022/05/01 08:42:36;;;;;;;1.30;1.30;;;22.70;55.60;;;;;;5049146;28;20420;-68
2022/05/01 08:45:03;;;;;;;1.53;1.23;;;22.20;63.10;;;;;;5049613;28;20331;-69
2022/05/01 08:48:07;;;;;;;1.40;1.40;;;22.20;49.50;;;;;;5068823;28;20495;-69
2022/05/01 08:50:35;;;;;;;1.37;1.30;;;22.20;55.10;;;;;;5068900;28;20456;-69
2022/05/01 08:53:02;;;;;;;1.20;1.20;;;22.20;54.70;;;;;;5069217;28;20425;-69
2022/05/01 08:55:30;;;;;;;2.40;1.63;;;22.10;63.20;;;;;;5058323;28;20461;-67
2022/05/01 08:57:57;;;;;;;1.50;1.13;;;;;;;;;;5040780;28;20936;-69
2022/05/01 09:00:23;;;;;;;1.50;1.40;;;22.10;61.10;;;;;;5049128;28;20641;-68
2022/05/01 09:02:49;;;;;;;1.20;1.20;;;;;;;;;;5049848;28;20190;-68
2022/05/01 09:05:16;;;;;;;1.10;1.00;;;;;;;;;;5049196;28;20473;-68
2022/05/01 09:07:42;;;;;;;1.40;1.40;;;;;;;;;;5048888;28;20454;-69
2022/05/01 09:10:09;;;;;;;2.17;1.50;;;;;;;;;;5067280;28;21025;-69
2022/05/01 09:12:51;;;;;;;1.30;1.20;;;;;;;;;;5068974;28;20398;-68
2022/05/01 09:15:38;;;;;;;1.30;1.30;;;22.20;49.90;;;;;;5068908;28;20410;-68
2022/05/01 09:18:14;;;;;;;1.50;1.50;;;22.20;50.10;;;;;;5053948;28;20553;-68
2022/05/01 09:21:04;;;;;;;1.50;1.50;;;22.20;57.90;;;;;;5068946;28;20433;-69
2022/05/01 09:23:45;;;;;;;1.45;1.45;;;22.20;49.80;;;;;;5067278;28;20417;-69
2022/05/01 09:26:13;;;;;;;1.17;1.17;;;21.40;59.30;;;;;;5066757;28;20203;-68
2022/05/01 09:28:55;;;;;;;1.50;1.40;;;22.20;49.90;;;;;;5048085;28;20849;-69
2022/05/01 09:31:42;;;;;;;5.60;1.40;;;22.20;50.00;;;;;;5050541;28;20413;-69
2022/05/01 09:34:29;;;;;;;1.03;1.03;;;22.40;85.50;;;;;;5053505;28;20430;-69
2022/05/01 09:36:58;;;;;;;1.20;1.20;;;22.20;55.20;;;;;;5048353;28;20944;-69
2022/05/01 09:39:28;;;;;;;1.40;1.40;;;22.10;55.10;;;;;;5052051;28;20445;-67
2022/05/01 09:42:11;;;;;;;2.50;1.50;;;22.10;58.90;;;;;;5052425;28;20865;-69
2022/05/01 09:44:37;;;;;;;1.60;1.47;;;;;;;;;;5052359;28;20414;-69
2022/05/01 09:47:03;;;;;;;1.30;1.20;;;;;;;;;;5059809;28;20845;-69
2022/05/01 09:49:49;;;;;;;1.93;1.83;;;22.20;55.60;;;;;;5071698;28;20683;-69
2022/05/01 09:52:15;;;;;;;3.00;1.73;;;;;;;;;;5071485;28;20492;-69
2022/05/01 09:54:42;;;;;;;1.42;1.33;;;;;;;;;;5050394;28;20410;-69
2022/05/01 09:57:23;;;;;;;1.97;1.87;;;22.40;57.00;;;;;;5043487;28;20206;-69
2022/05/01 09:59:49;;;;;;;1.60;1.60;;;;;;;;;;5051627;28;20438;-68
2022/05/01 10:02:15;;;;;;;1.87;1.77;;;22.40;78.20;;;;;;5049868;28;20449;-69
2022/05/01 10:04:42;;;;;;;1.80;1.80;;;22.20;55.40;;;;;;5050660;28;20262;-68
2022/05/01 10:07:08;;;;;;;1.57;1.50;;;;;;;;;;5048651;28;20215;-69
2022/05/01 10:09:35;;;;;;;1.20;1.20;;;22.40;64.20;;;;;;5050424;28;20779;-69
2022/05/01 10:12:07;;;;;;;1.55;1.45;;;22.20;50.20;;;;;;5052392;28;20421;-69
2022/05/01 10:14:34;;;;;;;1.47;1.47;;;;;;;;;;5050214;28;20617;-69
2022/05/01 10:17:01;;;;;;;1.70;1.70;;;22.30;56.00;;;;;;5052745;28;20417;-69
2022/05/01 10:19:27;;;;;;;1.43;1.43;;;;;;;;;;5050106;28;20454;-69
2022/05/01 10:21:59;;;;;;;1.47;1.37;;;22.60;55.80;;;;;;5050299;28;20459;-69
2022/05/01 10:24:25;;;;;;;1.27;1.27;;;;;;;;;;5051638;28;20421;-69
2022/05/01 10:27:21;;;;;;;1.70;1.60;;;22.20;50.20;;;;;;5051199;28;20458;-69
2022/05/01 10:32:55;;;;;;;1.63;1.63;;;22.20;50.30;;;;;;5048351;28;20943;-69
2022/05/01 10:35:59;;;;;;;1.30;1.30;;;22.40;85.70;;;;;;5048381;28;20402;-69
2022/05/01 10:38:41;;;;;;;1.43;1.43;;;22.40;51.40;;;;;;5047847;28;20444;-68
2022/05/01 10:41:10;;;;;;;1.30;1.20;;;22.30;56.00;;;;;;5047177;28;20433;-69
2022/05/01 10:43:38;;;;;;;1.10;1.10;;;22.10;54.40;;;;;;5051094;28;20437;-69
2022/05/01 10:46:24;;;;;;;1.20;1.20;;;22.20;55.70;;;;;;5052028;28;20471;-69
2022/05/01 10:48:51;;;;;;;1.17;1.17;;;;;;;;;;5070440;28;20457;-69
2022/05/01 10:51:31;;;;;;;1.20;1.20;;;24.10;52.10;;;;;;5067324;28;20419;-69
2022/05/01 10:54:19;;;;;;;1.20;1.20;;;22.20;51.20;;;;;;5050984;28;20425;-69
2022/05/01 10:56:45;;;;;;;1.47;1.40;;;23.00;62.00;;;;;;5050814;28;20444;-69
2022/05/01 10:59:29;;;;;;;1.27;1.27;;;22.20;50.70;;;;;;5050690;28;20434;-69
2022/05/01 11:01:56;;;;;;;1.73;1.63;;;22.40;79.70;;;;;;5069161;28;20433;-69
2022/05/01 11:04:22;;;;;;;1.10;1.10;;;;;;;;;;5071259;28;20416;-69
2022/05/01 11:06:52;;;;;;;1.77;1.67;;;22.30;50.80;;;;;;5068560;28;20195;-68
2022/05/01 11:09:25;;;;;;;1.57;1.40;;;22.20;59.60;;;;;;5050600;28;20454;-68
2022/05/01 11:11:55;;;;;;;8.40;1.45;;;22.20;56.30;;;;;;5058724;28;20426;-69
2022/05/01 11:14:59;;;;;;;2.07;1.70;;;22.30;51.70;;;;;;5069543;28;20179;-68
2022/05/01 11:17:36;;;;;;;1.70;1.60;;;22.30;51.60;;;;;;5051400;28;20949;-69
2022/05/01 11:20:23;;;;;;;1.40;1.30;;;22.40;51.20;;;;;;5041267;28;20525;-69
2022/05/01 11:22:49;;;;;;;1.40;1.27;;;;;;;;;;5049057;28;20446;-69
2022/05/01 11:25:38;;;;;;;2.23;1.93;;;22.20;51.00;;;;;;5049960;28;20414;-69
2022/05/01 11:28:04;;;;;;;4.00;3.60;;;;;;;;;;5055388;28;20592;-69
2022/05/01 11:30:31;;;;;;;2.77;2.37;;;;;;;;;;5049577;28;20412;-69
2022/05/01 11:33:06;;;;;;;7.57;2.28;;;22.30;57.00;;;;;;5050007;28;20411;-69
2022/05/01 11:35:56;;;;;;;7.17;2.53;;;22.30;51.10;;;;;;5049916;28;20182;-69
2022/05/01 11:38:33;;;;;;;3.53;2.53;;;21.80;56.30;;;;;;5030261;28;20423;-69
2022/05/01 11:41:01;;;;;;;2.83;2.20;;;22.30;56.70;;;;;;5068835;28;20413;-69
2022/05/01 11:43:28;;;;;;;3.63;2.70;;;22.40;54.00;;;;;;5069798;28;20398;-69
2022/05/01 11:45:55;;;;;;;3.50;2.63;;;22.10;68.50;;;;;;5069528;28;20405;-69
2022/05/01 11:48:21;;;;;;;4.03;2.83;;;;;;;;;;5069825;28;20434;-69
2022/05/01 11:50:48;;;;;;;2.63;2.07;;;22.70;66.30;;;;;;5069967;28;20494;-69
2022/05/01 11:53:25;;;;;;;3.85;2.40;;;22.40;63.80;;;;;;5065037;28;20430;-69
2022/05/01 12:04:27;;;;;;;6.20;3.17;;;22.50;51.60;;;;;;5051217;28;20484;-68
2022/05/01 12:07:02;;;;;;;6.00;3.10;;;22.10;57.50;;;;;;5049405;28;20452;-69
2022/05/01 12:09:29;;;;;;;3.00;2.47;;;;;;;;;;5049485;28;20942;-68
2022/05/01 12:11:55;;;;;;;9.27;2.40;;;;;;;;;;5049657;28;20483;-69
2022/05/01 12:14:21;;;;;;;4.53;2.90;;;;;;;;;;5049500;28;20963;-69
2022/05/01 12:16:47;;;;;;;4.70;2.57;;;22.40;55.30;;;;;;5057389;28;20532;-70
2022/05/01 12:19:14;;;;;;;6.47;2.57;;;;;;;;;;5052409;28;20219;-69
2022/05/01 12:21:40;;;;;;;4.13;3.70;;;;;;;;;;5029665;28;20556;-70
2022/05/01 12:24:08;;;;;;;7.37;3.30;;;22.40;55.50;;;;;;5048684;28;20777;-70
2022/05/01 12:26:37;;;;;;;8.53;3.40;;;22.30;55.50;;;;;;5049291;28;21008;-69
2022/05/01 12:29:06;;;;;;;3.63;2.67;;;22.30;55.40;;;;;;5049285;28;20528;-70
2022/05/01 12:32:02;;;;;;;8.60;3.93;;;22.30;56.10;;;;;;5056948;28;20432;-69
2022/05/01 12:34:29;;;;;;;4.87;2.93;;;22.20;55.40;;;;;;5069648;28;20423;-69
2022/05/01 12:36:56;;;;;;;5.43;2.77;;;22.30;55.30;;;;;;5054898;28;20424;-69
2022/05/01 12:39:23;;;;;;;2.90;2.10;;;22.40;54.50;;;;;;5046139;28;20546;-69
2022/05/01 12:45:12;;;;;;;4.55;2.78;;;22.30;50.90;;;;;;5041063;28;20427;-68
2022/05/01 12:47:49;;;;;;;4.67;2.70;;;22.40;61.70;;;;;;5061442;28;20678;-69
2022/05/01 12:50:21;;;;;;;6.07;3.03;;;22.10;65.80;;;;;;5049146;28;20497;-69
2022/05/01 12:52:51;;;;;;;7.10;2.27;;;22.40;55.70;;;;;;5049119;28;20455;-70
2022/05/01 12:55:19;;;;;;;6.90;3.03;;;22.10;66.70;;;;;;5049215;28;20498;-69
2022/05/01 12:57:52;;;;;;;3.37;2.97;;;22.40;50.60;;;;;;5049162;28;20452;-68
2022/05/01 13:00:41;;;;;;;4.57;2.80;;;22.40;50.40;;;;;;5029315;28;20408;-69
2022/05/01 13:03:30;;;;;;;2.80;2.47;;;22.40;50.30;;;;;;5029353;28;20494;-69
2022/05/01 13:06:10;;;;;;;3.90;2.63;;;22.40;50.40;;;;;;5029172;28;20451;-68
2022/05/01 13:09:05;;;;;;;2.50;2.30;;;22.50;58.50;;;;;;5029316;28;20434;-70
2022/05/01 13:11:33;;;;;;;10.43;2.87;;;;;;;;;;5033241;28;20533;-69
2022/05/01 13:14:05;;;;;;;2.33;2.13;;;22.40;55.40;;;;;;5072208;28;20478;-69
2022/05/01 13:16:31;;;;;;;4.20;2.57;;;;;;;;;;5057285;28;20426;-69
2022/05/01 13:19:10;;;;;;;9.40;2.53;;;22.20;50.50;;;;;;5067832;28;20947;-69
2022/05/01 13:21:39;;;;;;;4.77;2.20;;;22.40;55.30;;;;;;5053642;28;20433;-69
2022/05/01 13:24:05;;;;;;;5.73;2.77;;;;;;;;;;5052958;28;20418;-68
2022/05/01 13:26:31;;;;;;;3.00;2.77;;;;;;;;;;5052759;28;20462;-69
2022/05/01 13:28:57;;;;;;;4.47;2.37;;;;;;;;;;5052741;28;20418;-69
2022/05/01 13:31:23;;;;;;;2.93;2.57;;;;;;;;;;5057491;28;20417;-70
2022/05/01 13:33:49;;;;;;;6.53;3.00;;;;;;;;;;5072959;28;20560;-69
2022/05/01 13:36:16;;;;;;;2.67;2.40;;;;;;;;;;5072741;28;20412;-69
2022/05/01 13:38:42;;;;;;;2.30;2.17;;;;;;;;;;5072756;28;20445;-69
2022/05/01 13:46:37;;;;;;;2.23;2.13;;;;;;;;;;5070465;28;20544;-70
2022/05/01 13:49:04;;;;;;;6.07;2.70;;;;;;;;;;5072668;28;21102;-69
2022/05/01 13:51:31;;;;;;;2.40;2.20;;;;;;;;;;5072754;28;20444;-69
2022/05/01 13:53:57;;;;;;;3.20;2.50;;;;;;;;;;5072608;28;20485;-69
2022/05/01 13:56:23;;;;;;;3.20;2.40;;;;;;;;;;5072294;28;20687;-70
2022/05/01 13:58:49;;;;;;;3.10;2.33;;;;;;;;;;5064946;28;20464;-69
2022/05/01 14:01:15;;;;;;;3.73;2.43;;;22.60;81.70;;;;;;5052422;28;20418;-69
2022/05/01 14:03:40;;;;;;;2.20;2.00;;;;;;;;;;5052358;28;20421;-69
2022/05/01 14:06:06;;;;;;;5.13;3.87;;;22.80;75.20;;;;;;5050645;28;20215;-69
2022/05/01 14:08:32;;;;;;;2.90;2.70;;;19.90;52.80;;;;;;5052362;28;20426;-69
2022/05/01 14:10:58;;;;;;;10.23;2.27;;;;;;;;;;5056832;28;20212;-69
2022/05/01 14:13:24;;;;;;;2.97;2.57;;;;;;;;;;5057204;28;20480;-68
2022/05/01 14:15:50;;;;;;;2.83;2.60;;;;;;;;;;5051931;28;20407;-69
2022/05/01 14:18:19;;;;;;;4.57;2.43;;;22.70;55.30;;;;;;5059649;28;20510;-70
2022/05/01 14:20:45;;;;;;;3.87;2.60;;;;;;;;;;5072169;28;20929;-69
2022/05/01 14:23:13;;;;;;;2.33;2.00;;;22.60;74.50;;;;;;5072338;28;20777;-69
2022/05/01 14:25:39;;;;;;;2.60;2.00;;;;;;;;;;5071957;28;20488;-69
2022/05/01 14:28:05;;;;;;;4.37;2.60;;;;;;;;;;5071965;28;21069;-69
2022/05/01 14:30:32;;;;;;;4.83;2.90;;;22.70;55.10;;;;;;5064345;28;20407;-68
2022/05/01 14:33:00;;;;;;;3.10;2.20;;;22.60;55.30;;;;;;5067776;28;20770;-70
2022/05/01 14:35:29;;;;;;;3.10;2.17;;;22.70;63.70;;;;;;5072025;28;20433;-70
2022/05/01 14:38:25;;;;;;;4.10;1.98;;;22.70;50.50;;;;;;5056713;28;20430;-69